Time;durP1;ratioP1;P1;durP2;ratioP2;P2;SDS_P1;SDS_P2;PMS_P1;PMS_P2;Temp;Humidity;BMP_temperature;BMP_pressure;BME280_temperature;BME280_humidity;BME280_pressure;Samples;Min_cycle;Max_cycle;Signal;HPM_P1;HPM_P2
2024/02/09 00:03:41;;;;;;;1.88;0.98;;;;;;;17.41;51.84;98555.53;10415950;28;20033;-59
2024/02/09 00:08:42;;;;;;;3.28;0.98;;;;;;;17.41;53.01;98550.94;10428612;28;20025;-58
2024/02/09 00:13:42;;;;;;;2.58;1.10;;;;;;;17.40;53.38;98540.53;10414781;28;20025;-58
2024/02/09 00:18:42;;;;;;;1.67;0.90;;;;;;;17.44;51.63;98534.19;10415101;28;20049;-59
2024/02/09 00:23:43;;;;;;;1.70;1.00;;;;;;;17.41;51.71;98532.19;10414659;28;20026;-58
2024/02/09 00:28:43;;;;;;;2.30;1.10;;;;;;;17.40;52.79;98525.25;10414798;28;20631;-58
2024/02/09 00:33:44;;;;;;;2.60;1.43;;;;;;;17.41;53.19;98524.16;10415764;28;20303;-59
2024/02/09 00:38:44;;;;;;;2.00;1.35;;;;;;;17.40;52.88;98517.22;10414507;28;20278;-58
2024/02/09 00:43:46;;;;;;;1.70;1.10;;;;;;;17.42;51.98;98504.28;10413900;28;20013;-59
2024/02/09 00:48:47;;;;;;;2.03;1.13;;;;;;;17.38;53.43;98490.00;10412867;28;20272;-58
2024/02/09 00:53:50;;;;;;;3.07;1.20;;;;;;;17.38;52.98;98475.81;10413439;28;20408;-58
2024/02/09 00:58:50;;;;;;;2.58;1.20;;;;;;;17.39;51.65;98463.97;10412653;28;20276;-58
2024/02/09 01:03:53;;;;;;;2.20;1.00;;;;;;;17.37;52.18;98469.69;10412656;28;20437;-59
2024/02/09 01:08:53;;;;;;;1.92;1.00;;;;;;;17.39;52.38;98469.34;10437831;28;20357;-59
2024/02/09 03:05:34;;;;;;;1.52;0.65;;;;;;;17.36;51.84;98274.50;10409387;28;20033;-58
2024/02/09 03:10:38;;;;;;;1.75;0.80;;;;;;;17.34;53.52;98264.13;10421969;28;20033;-58
2024/02/09 03:15:38;;;;;;;1.98;1.00;;;;;;;17.37;52.17;98268.78;10408283;28;20036;-58
2024/02/09 03:20:40;;;;;;;3.20;0.90;;;;;;;17.37;53.12;98257.31;10409263;28;20744;-58
2024/02/09 03:25:40;;;;;;;2.17;1.63;;;;;;;17.38;53.61;98256.19;10412106;28;20021;-58
2024/02/09 03:30:40;;;;;;;1.80;0.90;;;;;;;17.39;52.09;98242.44;10418375;28;20020;-58
2024/02/09 03:35:41;;;;;;;2.63;1.05;;;;;;;17.39;52.46;98241.66;10416431;28;20763;-59
2024/02/09 03:40:41;;;;;;;1.50;0.80;;;;;;;17.38;51.78;98246.25;10416847;28;20052;-58
2024/02/09 03:45:42;;;;;;;1.50;0.82;;;;;;;17.42;53.35;98238.31;10416368;28;20278;-58
2024/02/09 03:50:42;;;;;;;2.13;0.80;;;;;;;17.37;51.80;98228.63;10416634;28;20457;-59
2024/02/09 03:55:43;;;;;;;1.15;0.70;;;;;;;17.38;52.19;98221.34;10416132;28;20363;-58
2024/02/09 04:00:44;;;;;;;1.58;0.95;;;;;;;17.37;52.06;98212.53;10416039;28;20112;-59
2024/02/09 04:05:45;;;;;;;2.03;0.80;;;;;;;17.37;52.92;98209.88;10415525;28;20026;-59
2024/02/09 04:10:46;;;;;;;2.72;1.20;;;;;;;17.37;52.67;98206.41;10428742;28;20055;-59
2024/02/09 04:15:46;;;;;;;1.83;0.77;;;;;;;17.39;52.33;98199.56;10413247;28;20443;-59
2024/02/09 04:20:47;;;;;;;1.00;0.55;;;;;;;17.39;52.75;98202.25;10415170;28;20021;-59
2024/02/09 04:25:47;;;;;;;1.90;0.97;;;;;;;17.40;52.28;98198.44;10414586;28;20052;-58
2024/02/09 04:30:47;;;;;;;2.43;1.17;;;;;;;17.37;52.77;98187.66;10416221;28;20283;-58
2024/02/09 04:35:47;;;;;;;2.00;0.80;;;;;;;17.35;52.27;98185.34;10413870;28;20284;-58
2024/02/09 04:40:48;;;;;;;1.60;0.87;;;;;;;17.37;53.37;98185.75;10421020;28;20271;-58
2024/02/09 04:45:48;;;;;;;2.22;0.80;;;;;;;17.36;53.15;98184.22;10429523;28;20272;-58
2024/02/09 04:50:49;;;;;;;1.60;0.70;;;;;;;17.36;52.21;98176.16;10437808;28;20463;-58
2024/02/09 04:55:50;;;;;;;1.57;0.60;;;;;;;17.38;52.82;98181.94;10428795;28;20357;-58
2024/02/09 05:00:50;;;;;;;2.67;0.88;;;;;;;17.33;53.22;98174.19;10430278;28;20373;-58
2024/02/09 05:05:51;;;;;;;1.00;0.73;;;;;;;17.35;52.73;98176.53;10428851;28;20025;-59
2024/02/09 05:10:51;;;;;;;2.60;0.83;;;;;;;17.34;52.96;98170.38;10424999;28;20842;-57
2024/02/09 05:15:51;;;;;;;0.80;0.57;;;;;;;17.32;52.84;98164.59;10433561;28;20299;-59
2024/02/09 05:20:52;;;;;;;1.48;0.73;;;;;;;17.34;52.56;98162.34;10443349;28;20279;-58
2024/02/09 05:25:52;;;;;;;1.93;0.70;;;;;;;17.32;52.19;98156.56;10427955;28;20025;-58
2024/02/09 05:30:52;;;;;;;2.60;0.75;;;;;;;17.33;52.06;98154.66;10429571;28;20284;-58
2024/02/09 05:35:55;;;;;;;1.70;0.90;;;;;;;17.32;53.04;98147.75;10447553;28;20037;-57
2024/02/09 05:40:55;;;;;;;1.98;0.90;;;;;;;17.32;52.78;98153.91;10412596;28;20280;-58
2024/02/09 05:45:56;;;;;;;2.10;0.80;;;;;;;17.31;53.62;98147.00;10422978;28;20413;-58
2024/02/09 05:50:56;;;;;;;1.07;0.57;;;;;;;17.34;53.56;98143.59;10410798;28;20284;-58
2024/02/09 05:55:56;;;;;;;1.30;0.90;;;;;;;17.32;53.55;98139.72;10440641;28;20357;-58
2024/02/09 06:00:57;;;;;;;1.47;0.87;;;;;;;17.29;52.30;98140.44;10441948;28;20658;-58
2024/02/09 06:05:57;;;;;;;8.50;0.80;;;;;;;17.32;53.27;98137.06;10416691;28;20284;-60
2024/02/09 06:11:05;;;;;;;6.80;1.15;;;;;;;17.56;52.38;98142.16;10482126;28;20408;-59
2024/02/09 06:16:05;;;;;;;8.82;1.75;;;;;;;17.49;55.03;98140.09;10426038;28;20033;-58
2024/02/09 06:21:06;;;;;;;14.93;1.88;;;;;;;17.44;55.53;98137.72;10407849;28;20045;-57
2024/02/09 06:26:08;;;;;;;12.77;1.43;;;;;;;17.46;54.54;98132.78;10412106;28;20029;-56
2024/02/09 06:31:08;;;;;;;4.43;1.35;;;;;;;17.33;54.91;98130.56;10432915;28;20342;-55
2024/02/09 06:36:09;;;;;;;7.67;0.90;;;;;;;17.24;54.49;98131.53;10403372;28;20057;-54
2024/02/09 06:41:09;;;;;;;3.33;1.10;;;;;;;17.19;54.43;98131.81;10440069;28;20671;-55
2024/02/09 06:46:09;;;;;;;3.88;0.70;;;;;;;17.15;54.33;98124.81;10411947;28;20064;-54
2024/02/09 06:51:10;;;;;;;5.22;1.23;;;;;;;17.12;55.70;98130.84;10430530;28;20036;-55
2024/02/09 06:56:11;;;;;;;7.43;1.52;;;;;;;17.16;55.17;98123.69;10407166;28;20373;-54
2024/02/09 07:01:12;;;;;;;8.90;1.52;;;;;;;17.18;55.41;98124.13;10401606;28;20048;-52
2024/02/09 07:06:12;;;;;;;10.88;2.72;;;;;;;17.26;54.49;98133.84;10406406;28;20029;-57
2024/02/09 07:11:12;;;;;;;9.23;1.98;;;;;;;17.21;55.58;98140.25;10420237;28;20120;-55
2024/02/09 07:16:13;;;;;;;11.03;2.20;;;;;;;17.19;55.39;98129.13;10435202;28;20025;-54
2024/02/09 07:21:14;;;;;;;8.93;2.37;;;;;;;17.15;55.92;98128.25;10397159;28;20272;-53
2024/02/09 07:26:15;;;;;;;11.43;2.05;;;;;;;17.11;54.44;98127.41;10371896;28;20273;-52
2024/02/09 07:31:15;;;;;;;9.85;2.38;;;;;;;17.08;54.15;98141.50;10371401;28;20026;-53
2024/02/09 07:36:15;;;;;;;8.30;1.83;;;;;;;17.09;55.67;98139.59;10381643;28;20393;-53
2024/02/09 07:41:19;;;;;;;10.23;1.42;;;;;;;17.11;54.33;98146.16;10409848;28;20276;-54
2024/02/09 07:46:20;;;;;;;5.20;1.45;;;;;;;17.13;53.97;98141.22;10412220;28;20104;-54
2024/02/09 07:51:20;;;;;;;8.85;1.52;;;;;;;17.14;54.18;98142.78;10411259;28;20203;-55
2024/02/09 07:56:23;;;;;;;5.30;1.90;;;;;;;17.17;53.69;98131.38;10411641;28;20079;-54
2024/02/09 08:01:24;;;;;;;5.25;1.35;;;;;;;17.17;54.76;98136.75;10411781;28;20536;-53
2024/02/09 08:06:24;;;;;;;6.90;1.25;;;;;;;17.16;54.11;98137.84;10411057;28;20049;-53
2024/02/09 08:11:24;;;;;;;6.50;1.30;;;;;;;17.23;53.61;98146.03;10387650;28;20029;-54
2024/02/09 08:16:25;;;;;;;4.78;1.85;;;;;;;17.23;55.07;98132.66;10369843;28;20971;-55
2024/02/09 08:21:25;;;;;;;2.97;1.50;;;;;;;17.21;54.33;98134.91;10369106;28;20393;-55
2024/02/09 08:26:25;;;;;;;3.95;1.52;;;;;;;17.21;53.88;98142.16;10369567;28;20300;-54
2024/02/09 08:31:26;;;;;;;5.80;1.57;;;;;;;17.24;53.83;98144.13;10369661;28;20108;-54
2024/02/09 08:36:28;;;;;;;13.35;2.20;;;;;;;17.22;55.12;98157.88;10369195;28;20280;-54
2024/02/09 08:41:28;;;;;;;5.05;1.92;;;;;;;17.22;54.82;98151.75;10370004;28;20469;-54
2024/02/09 08:46:28;;;;;;;7.15;0.93;;;;;;;17.24;54.31;98155.63;10367549;28;20049;-54
2024/02/09 08:51:29;;;;;;;3.17;1.10;;;;;;;17.25;54.38;98153.72;10369363;28;20030;-54
2024/02/09 08:56:29;;;;;;;8.13;1.70;;;;;;;17.23;53.81;98143.38;10368371;28;20755;-55
2024/02/09 09:01:30;;;;;;;3.78;1.85;;;;;;;17.26;53.40;98139.22;10368663;28;20269;-56
2024/02/09 09:06:30;;;;;;;5.03;1.43;;;;;;;17.24;53.50;98152.19;10368839;28;20050;-56
2024/02/09 09:11:30;;;;;;;5.93;1.35;;;;;;;17.21;54.56;98153.66;10381843;28;20284;-55
2024/02/09 09:16:33;;;;;;;7.18;1.15;;;;;;;17.27;54.47;98143.44;10369167;28;20030;-56
2024/02/09 09:21:33;;;;;;;3.53;1.25;;;;;;;17.29;53.74;98143.13;10369714;28;20577;-56
2024/02/09 09:26:34;;;;;;;3.03;1.08;;;;;;;17.28;54.93;98157.59;10368969;28;20109;-56
2024/02/09 09:31:34;;;;;;;4.80;1.42;;;;;;;17.22;54.96;98165.91;10370178;28;20028;-56
2024/02/09 09:36:35;;;;;;;4.90;1.52;;;;;;;17.19;53.64;98161.25;10395548;28;20025;-56
2024/02/09 09:41:41;;;;;;;6.13;2.00;;;;;;;17.17;54.61;98168.88;10408320;28;20385;-54
2024/02/09 09:46:45;;;;;;;7.20;1.20;;;;;;;17.12;55.97;98165.66;10407961;28;20291;-63
2024/02/09 09:51:49;;;;;;;5.25;1.58;;;;;;;17.11;56.34;98175.59;10391134;28;20417;-61
2024/02/09 09:56:51;;;;;;;6.30;1.60;;;;;;;17.11;54.67;98174.81;10391775;28;20040;-57
2024/02/09 10:01:52;;;;;;;13.20;1.55;;;;;;;17.10;56.23;98170.59;10389324;28;20030;-57
2024/02/09 10:06:52;;;;;;;5.82;1.65;;;;;;;17.14;54.95;98176.81;10381332;28;20046;-57
2024/02/09 10:11:52;;;;;;;7.32;1.80;;;;;;;17.09;54.92;98185.88;10402271;28;20030;-57
2024/02/09 10:16:54;;;;;;;6.15;2.10;;;;;;;17.09;54.90;98185.88;10401905;28;20125;-57
2024/02/09 10:21:55;;;;;;;5.45;1.60;;;;;;;17.13;56.20;98191.31;10393223;28;20018;-58
2024/02/09 10:26:56;;;;;;;7.50;1.55;;;;;;;17.08;55.90;98202.31;10397623;28;20033;-57
2024/02/09 10:31:56;;;;;;;5.30;1.40;;;;;;;17.03;55.45;98203.31;10416060;28;20171;-57
2024/02/09 10:36:57;;;;;;;7.45;1.70;;;;;;;17.07;55.40;98206.88;10388475;28;20018;-57
2024/02/09 10:42:02;;;;;;;5.23;1.50;;;;;;;17.05;56.12;98211.00;10391576;28;20032;-57
2024/02/09 10:47:06;;;;;;;7.30;2.03;;;;;;;17.04;56.29;98212.91;10399473;28;20295;-57
2024/02/09 10:52:08;;;;;;;5.05;1.63;;;;;;;17.01;55.44;98218.97;10407429;28;20022;-57
2024/02/09 10:57:10;;;;;;;3.55;1.35;;;;;;;17.01;55.44;98215.50;10428495;28;20100;-57
2024/02/09 11:02:13;;;;;;;6.20;2.35;;;;;;;17.00;55.54;98208.59;10383215;28;20040;-56
2024/02/09 11:07:15;;;;;;;11.95;1.83;;;;;;;17.01;55.59;98216.28;10374414;28;20140;-57
2024/02/09 11:12:19;;;;;;;6.55;1.90;;;;;;;16.99;56.15;98218.53;10383088;28;20429;-58
2024/02/09 11:17:19;;;;;;;4.75;1.80;;;;;;;16.93;57.58;98218.03;10378010;28;20032;-60
2024/02/09 11:22:19;;;;;;;9.43;1.97;;;;;;;16.94;56.33;98208.88;10413925;28;20032;-61
2024/02/09 11:27:29;;;;;;;8.33;2.67;;;;;;;16.98;56.34;98219.66;10399797;28;20353;-60
2024/02/09 11:32:31;;;;;;;;;;;;;;;16.96;56.06;98211.19;10413360;28;20275;-60
2024/02/09 11:37:32;;;;;;;10.30;1.33;;;;;;;16.93;56.34;98218.03;10407612;28;19913;-60
2024/02/09 11:42:32;;;;;;;3.33;1.13;;;;;;;16.92;56.46;98215.66;10405753;28;20033;-60
2024/02/09 11:47:32;;;;;;;8.43;2.07;;;;;;;16.94;57.49;98221.47;10400483;28;20276;-61
2024/02/09 11:52:33;;;;;;;4.65;1.35;;;;;;;16.94;57.28;98208.09;10410144;28;20299;-61
2024/02/09 11:57:33;;;;;;;7.85;2.05;;;;;;;16.95;57.37;98213.09;10389353;28;20018;-60
2024/02/09 12:02:33;;;;;;;9.73;3.00;;;;;;;16.94;57.14;98216.91;10390926;28;20022;-61
2024/02/09 12:07:34;;;;;;;7.20;2.33;;;;;;;16.95;57.30;98215.78;10407977;28;20292;-61
2024/02/09 12:12:35;;;;;;;15.63;3.22;;;;;;;17.02;57.66;98211.69;10388130;28;20288;-58
2024/02/09 12:17:36;;;;;;;9.98;2.00;;;;;;;17.15;57.94;98213.16;10391356;28;20026;-58
2024/02/09 12:22:39;;;;;;;16.08;2.50;;;;;;;17.20;59.40;98220.94;10407731;28;20030;-58
2024/02/09 12:27:40;;;;;;;8.43;1.63;;;;;;;17.21;58.48;98225.97;10396714;28;20057;-58
2024/02/09 12:32:41;;;;;;;16.88;2.78;;;;;;;17.23;58.23;98230.97;10398250;28;20091;-56
2024/02/09 12:37:42;;;;;;;10.75;2.22;;;;;;;17.23;59.23;98229.06;10410469;28;20284;-59
2024/02/09 12:42:42;;;;;;;16.13;2.45;;;;;;;17.19;58.24;98236.25;10410079;28;20029;-56
2024/02/09 12:47:46;;;;;;;17.27;2.83;;;;;;;17.21;58.75;98239.34;10409239;28;20030;-58
2024/02/09 12:52:49;;;;;;;10.82;2.00;;;;;;;17.20;58.04;98237.00;10393667;28;20276;-58
2024/02/09 12:57:51;;;;;;;17.88;3.60;;;;;;;17.12;58.09;98237.97;10386744;28;20037;-58
2024/02/09 13:02:51;;;;;;;17.65;3.15;;;;;;;17.01;59.62;98234.25;10381624;28;20029;-60
2024/02/09 13:07:51;;;;;;;24.20;3.35;;;;;;;16.94;59.87;98241.00;10378331;28;20053;-60
2024/02/09 13:12:53;;;;;;;8.73;2.58;;;;;;;16.95;58.00;98241.75;10387075;28;20036;-60
2024/02/09 13:17:54;;;;;;;9.40;2.53;;;;;;;16.95;58.39;98244.44;10408202;28;20018;-59
2024/02/09 13:22:55;;;;;;;11.32;2.17;;;;;;;16.94;58.12;98248.25;10408590;28;20021;-59
2024/02/09 13:27:58;;;;;;;5.53;1.85;;;;;;;16.91;58.35;98254.25;10409157;28;20018;-59
2024/02/09 13:32:58;;;;;;;9.55;2.55;;;;;;;16.90;57.45;98250.03;10382381;28;20033;-60
2024/02/09 13:37:59;;;;;;;8.25;2.13;;;;;;;16.86;58.48;98241.13;10366111;28;20018;-59
2024/02/09 13:43:00;;;;;;;11.77;2.07;;;;;;;16.85;57.81;98253.75;10381067;28;20691;-59
2024/02/09 13:48:00;;;;;;;9.95;3.60;;;;;;;16.82;58.77;98249.09;10408436;28;20291;-58
2024/02/09 13:53:00;;;;;;;5.47;2.03;;;;;;;16.80;58.55;98243.28;10406663;28;20025;-60
2024/02/09 13:58:01;;;;;;;8.00;2.00;;;;;;;16.79;56.99;98246.31;10408189;28;20481;-59
2024/02/09 14:03:01;;;;;;;5.67;1.60;;;;;;;16.76;58.01;98242.41;10407352;28;20287;-59
2024/02/09 14:08:04;;;;;;;6.32;1.50;;;;;;;16.77;58.08;98237.84;10407659;28;20307;-59
2024/02/09 14:13:04;;;;;;;6.18;1.80;;;;;;;16.75;58.33;98234.72;10371403;28;20064;-59
2024/02/09 14:18:04;;;;;;;4.73;1.43;;;;;;;16.73;58.32;98234.31;10366826;28;20056;-59
2024/02/09 14:23:05;;;;;;;4.28;1.48;;;;;;;16.72;58.09;98230.84;10366733;28;20704;-59
2024/02/09 14:28:08;;;;;;;2.97;1.33;;;;;;;16.70;57.17;98233.09;10366689;28;20117;-59
2024/02/09 14:33:08;;;;;;;5.47;1.98;;;;;;;16.69;57.68;98225.38;10383048;28;20128;-58
2024/02/09 14:38:09;;;;;;;5.73;1.87;;;;;;;16.70;57.07;98226.97;10373468;28;20034;-59
2024/02/09 14:43:10;;;;;;;2.53;1.40;;;;;;;16.69;58.31;98234.19;10372903;28;20283;-59
2024/02/09 14:48:10;;;;;;;4.05;1.63;;;;;;;16.67;56.93;98228.38;10374463;28;20320;-57
2024/02/09 14:53:11;;;;;;;4.13;1.30;;;;;;;16.68;58.03;98232.63;10373444;28;20062;-59
2024/02/09 14:58:11;;;;;;;4.40;1.48;;;;;;;16.64;57.64;98227.19;10394640;28;20033;-60
2024/02/09 15:03:11;;;;;;;3.33;1.47;;;;;;;16.63;58.21;98236.31;10414464;28;20033;-59
2024/02/09 15:08:12;;;;;;;9.00;1.77;;;;;;;16.64;57.96;98237.09;10413691;28;20609;-61
2024/02/09 15:13:13;;;;;;;4.97;1.63;;;;;;;16.77;57.08;98235.94;10392224;28;20291;-61
2024/02/09 15:18:15;;;;;;;6.22;2.15;;;;;;;16.85;58.49;98244.94;10412554;28;20026;-60
2024/02/09 15:23:15;;;;;;;5.43;1.13;;;;;;;16.89;57.78;98251.94;10373957;28;20037;-59
2024/02/09 15:28:15;;;;;;;9.80;1.80;;;;;;;16.81;58.33;98247.53;10371276;28;20453;-60
2024/02/09 15:33:18;;;;;;;41.53;5.20;;;;;;;16.73;59.34;98253.03;10398990;28;20279;-60
2024/02/09 15:38:19;;;;;;;28.02;3.90;;;;;;;16.68;59.08;98243.34;10373075;28;20026;-61
2024/02/09 15:43:19;;;;;;;14.98;2.25;;;;;;;16.68;58.08;98251.38;10371407;28;20033;-61
2024/02/09 15:48:19;;;;;;;13.88;3.85;;;;;;;16.68;57.73;98235.31;10372203;28;20037;-59
2024/02/09 15:53:20;;;;;;;17.07;2.83;;;;;;;16.72;57.59;98243.47;10372285;28;20030;-58
2024/02/09 15:58:20;;;;;;;12.63;3.13;;;;;;;16.70;57.54;98241.13;10372686;28;20268;-58
2024/02/09 16:03:21;;;;;;;14.68;3.17;;;;;;;16.68;58.73;98251.38;10374899;28;20048;-58
2024/02/09 16:08:21;;;;;;;11.82;2.47;;;;;;;16.65;57.16;98244.78;10384282;28;20046;-57
2024/02/09 16:13:22;;;;;;;22.90;3.60;;;;;;;16.63;58.03;98238.22;10373772;28;20091;-56
2024/02/09 16:18:26;;;;;;;13.50;2.70;;;;;;;16.75;58.46;98240.88;10376070;28;20092;-57
2024/02/09 16:23:26;;;;;;;15.88;2.67;;;;;;;16.80;58.94;98240.59;10398620;28;20025;-57
2024/02/09 16:28:26;;;;;;;11.27;2.63;;;;;;;16.84;57.94;98236.13;10395806;28;20029;-57
2024/02/09 16:33:27;;;;;;;33.10;3.97;;;;;;;16.85;59.22;98245.72;10384319;28;20292;-57
2024/02/09 16:38:27;;;;;;;28.55;5.80;;;;;;;16.84;58.30;98232.69;10407483;28;20272;-57
2024/02/09 16:43:28;;;;;;;15.80;4.00;;;;;;;16.80;58.41;98245.94;10395526;28;20057;-57
2024/02/09 16:48:28;;;;;;;25.60;3.93;;;;;;;16.79;57.90;98243.63;10374551;28;20304;-57
2024/02/09 16:53:28;;;;;;;44.77;7.27;;;;;;;16.79;59.18;98238.28;10380847;28;20350;-58
2024/02/09 16:58:29;;;;;;;31.67;5.97;;;;;;;16.76;58.71;98239.75;10379221;28;20390;-58
2024/02/09 17:03:29;;;;;;;51.75;10.63;;;;;;;16.75;58.92;98234.72;10376528;28;20284;-57
2024/02/09 17:08:29;;;;;;;47.03;10.43;;;;;;;16.76;60.12;98244.31;10380807;28;20045;-59
2024/02/09 17:13:30;;;;;;;44.08;9.75;;;;;;;16.78;60.76;98266.94;10366219;28;20724;-58
2024/02/09 17:18:30;;;;;;;40.75;9.45;;;;;;;16.88;62.10;98268.34;10366894;28;20310;-57
2024/02/09 17:23:30;;;;;;;32.22;8.38;;;;;;;17.06;62.71;98258.88;10365946;28;20057;-57
2024/02/09 17:28:34;;;;;;;33.60;9.10;;;;;;;17.09;62.26;98260.06;10365085;28;20030;-55
2024/02/09 17:33:34;;;;;;;24.63;6.07;;;;;;;17.10;60.90;98264.31;10367475;28;20049;-55
2024/02/09 17:38:34;;;;;;;46.63;9.60;;;;;;;17.00;61.19;98264.81;10402524;28;20021;-56
2024/02/09 17:43:39;;;;;;;36.83;7.55;;;;;;;17.02;61.70;98262.56;10406256;28;20308;-58
2024/02/09 17:48:39;;;;;;;47.72;8.77;;;;;;;17.01;60.21;98274.41;10405431;28;20034;-57
2024/02/09 17:53:39;;;;;;;49.40;8.98;;;;;;;16.93;60.17;98273.44;10404722;28;20025;-56
2024/02/09 17:58:40;;;;;;;41.47;7.17;;;;;;;16.92;60.17;98272.66;10391568;28;20032;-55
2024/02/09 18:03:40;;;;;;;43.47;7.55;;;;;;;17.03;59.79;98274.81;10391263;28;20613;-58
2024/02/09 18:08:40;;;;;;;30.90;5.80;;;;;;;16.89;60.29;98272.56;10404327;28;20378;-59
2024/02/09 18:13:41;;;;;;;36.72;7.43;;;;;;;16.80;60.46;98271.94;10346729;28;20041;-58
2024/02/09 18:18:43;;;;;;;27.25;5.97;;;;;;;16.79;59.99;98273.06;10365563;28;20098;-58
2024/02/09 18:23:44;;;;;;;21.60;5.72;;;;;;;16.76;60.64;98268.41;10370792;28;20029;-59
2024/02/09 18:28:45;;;;;;;29.30;6.35;;;;;;;16.75;60.44;98281.00;10384965;28;20018;-60
2024/02/09 18:33:46;;;;;;;21.63;7.33;;;;;;;16.78;59.58;98291.00;10398802;28;20030;-59
2024/02/09 18:38:46;;;;;;;24.65;5.68;;;;;;;16.80;61.09;98291.44;10403377;28;20745;-66
2024/02/09 18:43:46;;;;;;;26.08;5.00;;;;;;;16.86;61.05;98300.78;10398717;28;20552;-60
2024/02/09 18:48:47;;;;;;;26.77;5.63;;;;;;;16.89;61.04;98297.44;10385720;28;20092;-59
2024/02/09 18:53:47;;;;;;;21.43;4.93;;;;;;;16.79;60.21;98295.25;10367959;28;20350;-61
2024/02/09 18:58:47;;;;;;;16.67;4.57;;;;;;;16.74;59.85;98295.50;10367105;28;20335;-59
2024/02/09 19:03:48;;;;;;;20.50;5.23;;;;;;;16.77;59.40;98294.81;10369276;28;20342;-59
2024/02/09 19:08:48;;;;;;;18.87;4.53;;;;;;;16.74;59.56;98300.06;10377025;28;20311;-60
2024/02/09 19:13:52;;;;;;;13.02;5.32;;;;;;;16.76;59.49;98295.16;10407493;28;20279;-60
2024/02/09 19:18:55;;;;;;;16.40;4.97;;;;;;;16.72;60.45;98303.09;10395846;28;20026;-59
2024/02/09 19:23:56;;;;;;;18.42;4.93;;;;;;;16.72;59.69;98292.41;10398940;28;20112;-60
2024/02/09 19:28:57;;;;;;;11.73;3.78;;;;;;;16.67;59.55;98304.09;10387580;28;20374;-61
2024/02/09 19:33:57;;;;;;;15.32;4.65;;;;;;;16.69;58.85;98302.97;10397119;28;20026;-61
2024/02/09 19:39:00;;;;;;;12.43;4.33;;;;;;;16.67;58.85;98301.44;10369653;28;20021;-61
2024/02/09 19:44:01;;;;;;;12.98;3.90;;;;;;;16.66;59.00;98299.06;10368485;28;20320;-61
2024/02/09 19:49:04;;;;;;;11.05;3.65;;;;;;;16.66;59.10;98301.75;10383205;28;20259;-61
2024/02/09 19:54:06;;;;;;;13.30;3.92;;;;;;;16.63;59.01;98297.09;10392198;28;20443;-61
2024/02/09 19:59:06;;;;;;;11.10;4.20;;;;;;;16.63;59.18;98297.09;10410479;28;20068;-61
2024/02/09 20:04:07;;;;;;;6.43;2.80;;;;;;;16.61;58.37;98294.75;10381585;28;20072;-61
2024/02/09 20:09:08;;;;;;;8.38;4.03;;;;;;;16.61;58.67;98293.97;10380814;28;20057;-61
2024/02/09 20:14:09;;;;;;;7.70;3.55;;;;;;;16.59;59.13;98291.66;10367768;28;20397;-62
2024/02/09 20:19:10;;;;;;;8.18;3.63;;;;;;;16.57;58.42;98293.09;10401413;28;20026;-62
2024/02/09 20:24:10;;;;;;;10.65;3.30;;;;;;;16.57;59.17;98288.50;10408226;28;20044;-61
2024/02/09 20:29:12;;;;;;;8.40;2.83;;;;;;;16.56;58.07;98294.97;10386669;28;20033;-61
2024/02/09 20:34:12;;;;;;;9.32;3.95;;;;;;;16.54;58.74;98299.91;10376733;28;20030;-61
2024/02/09 20:39:12;;;;;;;8.55;3.38;;;;;;;16.54;59.16;98304.47;10367623;28;20026;-61
2024/02/09 20:44:15;;;;;;;8.45;3.63;;;;;;;16.55;59.20;98306.03;10366853;28;20014;-61
2024/02/09 20:49:16;;;;;;;9.85;4.13;;;;;;;16.52;58.55;98306.72;10367133;28;20026;-60
2024/02/09 20:54:18;;;;;;;9.95;3.70;;;;;;;16.52;58.77;98304.03;10367379;28;20034;-61
2024/02/09 20:59:18;;;;;;;7.20;3.47;;;;;;;16.51;58.39;98302.47;10366608;28;20037;-61
2024/02/09 21:04:19;;;;;;;6.83;3.10;;;;;;;16.50;58.11;98296.34;10366306;28;20029;-61
2024/02/09 21:09:19;;;;;;;6.22;2.58;;;;;;;16.49;58.54;98299.38;10379384;28;20660;-61
2024/02/09 21:14:19;;;;;;;7.60;3.85;;;;;;;16.49;57.91;98307.41;10380237;28;20022;-61
2024/02/09 21:19:20;;;;;;;9.67;3.43;;;;;;;16.47;57.93;98301.63;10364877;28;20076;-61
2024/02/09 21:24:20;;;;;;;7.93;3.07;;;;;;;16.46;58.21;98302.72;10367070;28;20538;-61
2024/02/09 21:29:22;;;;;;;4.43;2.73;;;;;;;16.44;57.59;98297.69;10365668;28;20288;-61
2024/02/09 21:34:22;;;;;;;4.47;2.25;;;;;;;16.45;57.91;98303.81;10392399;28;20320;-60
2024/02/09 21:39:22;;;;;;;7.83;2.67;;;;;;;16.43;58.42;98304.16;10365314;28;20022;-61
2024/02/09 21:44:23;;;;;;;6.63;3.00;;;;;;;16.43;58.46;98314.09;10366100;28;20285;-61
2024/02/09 21:49:23;;;;;;;7.93;2.90;;;;;;;16.41;58.82;98310.97;10378249;28;20291;-61
2024/02/09 21:54:23;;;;;;;5.37;2.07;;;;;;;16.41;58.65;98322.44;10394755;28;20284;-61
2024/02/09 21:59:25;;;;;;;5.60;2.40;;;;;;;16.40;59.11;98312.88;10405644;28;20260;-60
2024/02/09 22:04:25;;;;;;;3.65;1.92;;;;;;;16.38;57.79;98326.59;10406189;28;20033;-61
2024/02/09 22:09:26;;;;;;;5.40;2.20;;;;;;;16.38;58.21;98323.91;10397838;28;20046;-61
2024/02/09 22:14:26;;;;;;;4.88;2.20;;;;;;;16.37;57.75;98325.03;10378807;28;20036;-60
2024/02/09 22:19:26;;;;;;;5.60;2.57;;;;;;;16.37;58.65;98322.34;10399580;28;20465;-60
2024/02/09 22:24:27;;;;;;;6.13;2.00;;;;;;;16.36;57.72;98331.50;10405308;28;20287;-61
2024/02/09 22:29:28;;;;;;;5.32;2.75;;;;;;;16.35;57.50;98326.50;10405225;28;20292;-61
2024/02/09 22:34:31;;;;;;;6.60;2.30;;;;;;;16.35;58.42;98323.81;10367285;28;20026;-60
2024/02/09 22:39:32;;;;;;;6.13;2.50;;;;;;;16.33;56.89;98326.81;10362637;28;20022;-61
2024/02/09 22:44:32;;;;;;;9.05;2.47;;;;;;;16.32;58.04;98325.25;10363023;28;20376;-61
2024/02/09 22:49:33;;;;;;;6.82;2.90;;;;;;;16.32;57.61;98317.22;10365051;28;20033;-60
2024/02/09 22:54:34;;;;;;;6.53;2.20;;;;;;;16.32;57.65;98322.56;10384997;28;20037;-61
2024/02/09 22:59:35;;;;;;;5.83;2.17;;;;;;;16.31;58.17;98331.72;10401068;28;20024;-60
2024/02/09 23:04:35;;;;;;;7.13;3.53;;;;;;;16.31;56.91;98326.38;10406481;28;20285;-61
2024/02/09 23:09:38;;;;;;;4.20;2.30;;;;;;;16.31;56.93;98331.72;10382626;28;20046;-60
2024/02/09 23:14:39;;;;;;;4.40;2.63;;;;;;;16.30;57.63;98335.50;10371551;28;20121;-61
2024/02/09 23:19:39;;;;;;;7.10;2.38;;;;;;;16.30;57.99;98337.41;10369597;28;20014;-61
2024/02/09 23:24:42;;;;;;;5.22;2.25;;;;;;;16.29;57.54;98344.66;10369536;28;20489;-61
2024/02/09 23:29:42;;;;;;;5.53;3.08;;;;;;;16.28;57.61;98343.09;10370599;28;20058;-61
2024/02/09 23:34:45;;;;;;;4.53;1.97;;;;;;;16.29;57.25;98351.91;10371361;28;20022;-61
2024/02/09 23:39:48;;;;;;;5.43;1.98;;;;;;;16.28;58.18;98353.78;10370150;28;20861;-61
2024/02/09 23:44:50;;;;;;;4.65;2.17;;;;;;;16.27;57.66;98356.81;10368701;28;20057;-61
2024/02/09 23:49:52;;;;;;;5.00;2.53;;;;;;;16.27;57.70;98359.47;10368588;28;20132;-60
2024/02/09 23:54:54;;;;;;;4.00;2.25;;;;;;;16.26;56.81;98356.03;10369653;28;20053;-61
2024/02/09 23:59:54;;;;;;;3.45;2.00;;;;;;;16.25;57.32;98356.38;10367891;28;20063;-60
